sensor_id;sensor_type;location;lat;lon;timestamp;pressure;altitude;pressure_sealevel;temperature;humidity
76448;BME280;65284;51.040;13.722;2023-10-19T00:00:49;98578.94;;;7.47;75.19
76448;BME280;65284;51.040;13.722;2023-10-19T00:03:19;98574.19;;;7.43;75.30
76448;BME280;65284;51.040;13.722;2023-10-19T00:05:46;98574.09;;;7.51;74.91
76448;BME280;65284;51.040;13.722;2023-10-19T00:08:13;98562.09;;;7.48;74.81
76448;BME280;65284;51.040;13.722;2023-10-19T00:10:51;98558.00;;;7.46;75.13
76448;BME280;65284;51.040;13.722;2023-10-19T00:13:37;98551.34;;;7.50;74.79
76448;BME280;65284;51.040;13.722;2023-10-19T00:16:08;98551.19;;;7.51;74.74
76448;BME280;65284;51.040;13.722;2023-10-19T00:18:43;98546.34;;;7.55;74.87
76448;BME280;65284;51.040;13.722;2023-10-19T00:21:10;98546.34;;;7.55;74.74
76448;BME280;65284;51.040;13.722;2023-10-19T00:23:37;98547.53;;;7.52;74.58
76448;BME280;65284;51.040;13.722;2023-10-19T00:26:06;98550.16;;;7.52;74.63
76448;BME280;65284;51.040;13.722;2023-10-19T00:28:36;98543.06;;;7.53;74.44
76448;BME280;65284;51.040;13.722;2023-10-19T00:31:05;98536.34;;;7.65;73.57
76448;BME280;65284;51.040;13.722;2023-10-19T00:33:35;98541.00;;;7.63;73.61
76448;BME280;65284;51.040;13.722;2023-10-19T00:36:08;98527.44;;;7.66;73.59
76448;BME280;65284;51.040;13.722;2023-10-19T00:38:42;98542.44;;;7.66;73.49
76448;BME280;65284;51.040;13.722;2023-10-19T00:41:24;98538.00;;;7.66;73.61
76448;BME280;65284;51.040;13.722;2023-10-19T00:43:54;98531.88;;;7.66;73.33
76448;BME280;65284;51.040;13.722;2023-10-19T00:46:33;98528.06;;;7.68;73.63
76448;BME280;65284;51.040;13.722;2023-10-19T00:49:20;98523.44;;;7.70;73.52
76448;BME280;65284;51.040;13.722;2023-10-19T00:51:52;98509.22;;;7.71;73.30
76448;BME280;65284;51.040;13.722;2023-10-19T00:54:41;98510.16;;;7.79;73.14
76448;BME280;65284;51.040;13.722;2023-10-19T00:57:18;98511.22;;;7.69;74.08
76448;BME280;65284;51.040;13.722;2023-10-19T01:00:01;98512.50;;;7.73;73.51
76448;BME280;65284;51.040;13.722;2023-10-19T01:02:48;98506.41;;;7.73;73.25
76448;BME280;65284;51.040;13.722;2023-10-19T01:05:17;98503.56;;;7.74;73.80
76448;BME280;65284;51.040;13.722;2023-10-19T01:07:48;98492.63;;;7.78;73.82
76448;BME280;65284;51.040;13.722;2023-10-19T01:10:23;98489.63;;;7.81;73.32
76448;BME280;65284;51.040;13.722;2023-10-19T01:12:51;98479.69;;;7.83;73.17
76448;BME280;65284;51.040;13.722;2023-10-19T01:15:18;98488.28;;;7.85;73.37
76448;BME280;65284;51.040;13.722;2023-10-19T01:17:55;98473.69;;;7.89;72.61
76448;BME280;65284;51.040;13.722;2023-10-19T01:20:27;98465.16;;;7.87;73.15
76448;BME280;65284;51.040;13.722;2023-10-19T01:23:04;98461.13;;;7.91;72.90
76448;BME280;65284;51.040;13.722;2023-10-19T01:25:57;98457.84;;;7.89;73.17
76448;BME280;65284;51.040;13.722;2023-10-19T01:28:26;98458.28;;;7.92;73.12
76448;BME280;65284;51.040;13.722;2023-10-19T01:31:10;98459.13;;;7.93;73.00
76448;BME280;65284;51.040;13.722;2023-10-19T01:33:42;98452.19;;;7.92;73.24
76448;BME280;65284;51.040;13.722;2023-10-19T01:36:10;98453.00;;;7.92;72.97
76448;BME280;65284;51.040;13.722;2023-10-19T01:38:38;98448.19;;;7.96;73.22
76448;BME280;65284;51.040;13.722;2023-10-19T01:41:06;98440.88;;;7.98;72.85
76448;BME280;65284;51.040;13.722;2023-10-19T01:43:50;98435.41;;;8.00;73.17
76448;BME280;65284;51.040;13.722;2023-10-19T01:46:17;98443.34;;;8.00;73.21
76448;BME280;65284;51.040;13.722;2023-10-19T01:49:01;98436.97;;;8.09;72.74
76448;BME280;65284;51.040;13.722;2023-10-19T01:51:30;98424.75;;;8.08;72.64
76448;BME280;65284;51.040;13.722;2023-10-19T01:53:59;98431.59;;;8.02;73.18
76448;BME280;65284;51.040;13.722;2023-10-19T01:56:29;98422.28;;;8.06;73.02
76448;BME280;65284;51.040;13.722;2023-10-19T01:58:56;98418.63;;;8.07;73.02
76448;BME280;65284;51.040;13.722;2023-10-19T02:01:23;98413.25;;;8.15;72.90
76448;BME280;65284;51.040;13.722;2023-10-19T02:03:53;98409.34;;;8.11;73.01
76448;BME280;65284;51.040;13.722;2023-10-19T02:06:30;98409.34;;;8.11;73.21
76448;BME280;65284;51.040;13.722;2023-10-19T02:09:02;98407.34;;;8.13;73.11
76448;BME280;65284;51.040;13.722;2023-10-19T02:11:36;98402.38;;;8.10;73.22
76448;BME280;65284;51.040;13.722;2023-10-19T02:14:08;98396.13;;;8.11;73.09
76448;BME280;65284;51.040;13.722;2023-10-19T02:16:42;98396.75;;;8.13;73.08
76448;BME280;65284;51.040;13.722;2023-10-19T02:19:10;98385.34;;;8.13;73.20
76448;BME280;65284;51.040;13.722;2023-10-19T02:21:36;98388.47;;;8.16;73.20
76448;BME280;65284;51.040;13.722;2023-10-19T02:24:06;98378.13;;;8.21;73.00
76448;BME280;65284;51.040;13.722;2023-10-19T02:26:34;98369.09;;;8.16;73.73
76448;BME280;65284;51.040;13.722;2023-10-19T02:29:00;98375.25;;;8.16;73.50
76448;BME280;65284;51.040;13.722;2023-10-19T02:31:26;98361.38;;;8.14;73.07
76448;BME280;65284;51.040;13.722;2023-10-19T02:33:54;98355.06;;;8.15;73.49
76448;BME280;65284;51.040;13.722;2023-10-19T02:36:27;98348.41;;;8.19;73.10
76448;BME280;65284;51.040;13.722;2023-10-19T02:39:02;98336.19;;;8.18;73.61
76448;BME280;65284;51.040;13.722;2023-10-19T02:44:09;98332.94;;;8.16;73.87
76448;BME280;65284;51.040;13.722;2023-10-19T02:46:37;98307.72;;;8.20;73.35
76448;BME280;65284;51.040;13.722;2023-10-19T02:49:09;98309.75;;;8.18;73.60
76448;BME280;65284;51.040;13.722;2023-10-19T02:51:50;98299.97;;;8.19;73.20
76448;BME280;65284;51.040;13.722;2023-10-19T02:54:23;98293.88;;;8.18;73.51
76448;BME280;65284;51.040;13.722;2023-10-19T02:56:54;98292.25;;;8.17;73.76
76448;BME280;65284;51.040;13.722;2023-10-19T02:59:24;98294.88;;;8.17;73.68
76448;BME280;65284;51.040;13.722;2023-10-19T03:01:52;98292.88;;;8.19;74.22
76448;BME280;65284;51.040;13.722;2023-10-19T03:04:21;98294.50;;;8.20;74.14
76448;BME280;65284;51.040;13.722;2023-10-19T03:06:47;98290.25;;;8.19;74.41
76448;BME280;65284;51.040;13.722;2023-10-19T03:09:14;98286.75;;;8.19;74.92
76448;BME280;65284;51.040;13.722;2023-10-19T03:11:43;98284.69;;;8.14;75.47
76448;BME280;65284;51.040;13.722;2023-10-19T03:14:11;98283.41;;;8.10;76.41
76448;BME280;65284;51.040;13.722;2023-10-19T03:16:38;98273.22;;;8.07;77.46
76448;BME280;65284;51.040;13.722;2023-10-19T03:19:08;98265.66;;;8.04;78.35
76448;BME280;65284;51.040;13.722;2023-10-19T03:21:35;98272.16;;;8.02;78.94
76448;BME280;65284;51.040;13.722;2023-10-19T03:24:09;98281.88;;;8.01;79.30
76448;BME280;65284;51.040;13.722;2023-10-19T03:26:40;98276.22;;;8.04;79.31
76448;BME280;65284;51.040;13.722;2023-10-19T03:29:16;98268.06;;;7.99;79.79
76448;BME280;65284;51.040;13.722;2023-10-19T03:31:48;98270.81;;;7.91;80.68
76448;BME280;65284;51.040;13.722;2023-10-19T03:34:15;98275.28;;;7.90;81.50
76448;BME280;65284;51.040;13.722;2023-10-19T03:36:44;98285.41;;;7.87;82.38
76448;BME280;65284;51.040;13.722;2023-10-19T03:39:10;98288.78;;;7.81;82.55
76448;BME280;65284;51.040;13.722;2023-10-19T03:41:41;98291.78;;;7.78;83.63
76448;BME280;65284;51.040;13.722;2023-10-19T03:44:11;98281.69;;;7.81;83.86
76448;BME280;65284;51.040;13.722;2023-10-19T03:46:50;98266.38;;;7.77;84.77
76448;BME280;65284;51.040;13.722;2023-10-19T03:49:20;98279.59;;;7.77;85.28
76448;BME280;65284;51.040;13.722;2023-10-19T03:51:47;98292.16;;;7.74;85.48
76448;BME280;65284;51.040;13.722;2023-10-19T03:54:32;98292.53;;;7.71;86.74
76448;BME280;65284;51.040;13.722;2023-10-19T03:56:59;98300.47;;;7.71;86.98
76448;BME280;65284;51.040;13.722;2023-10-19T03:59:32;98295.28;;;7.63;88.83
76448;BME280;65284;51.040;13.722;2023-10-19T04:02:01;98290.38;;;7.60;89.51
76448;BME280;65284;51.040;13.722;2023-10-19T04:04:33;98295.66;;;7.60;90.03
76448;BME280;65284;51.040;13.722;2023-10-19T04:07:01;98289.75;;;7.58;91.36
76448;BME280;65284;51.040;13.722;2023-10-19T04:09:37;98288.44;;;7.54;92.24
76448;BME280;65284;51.040;13.722;2023-10-19T04:12:27;98291.22;;;7.46;94.35
76448;BME280;65284;51.040;13.722;2023-10-19T04:15:03;98286.00;;;7.38;96.16
76448;BME280;65284;51.040;13.722;2023-10-19T04:17:36;98287.47;;;7.40;96.92
76448;BME280;65284;51.040;13.722;2023-10-19T04:20:06;98272.09;;;7.29;97.73
76448;BME280;65284;51.040;13.722;2023-10-19T04:22:54;98258.06;;;7.28;99.58
76448;BME280;65284;51.040;13.722;2023-10-19T04:25:20;98259.34;;;7.18;100.00
76448;BME280;65284;51.040;13.722;2023-10-19T04:27:52;98264.53;;;7.11;100.00
76448;BME280;65284;51.040;13.722;2023-10-19T04:30:18;98250.16;;;6.99;100.00
76448;BME280;65284;51.040;13.722;2023-10-19T04:32:49;98245.22;;;6.96;100.00
76448;BME280;65284;51.040;13.722;2023-10-19T04:35:17;98246.78;;;6.90;100.00
76448;BME280;65284;51.040;13.722;2023-10-19T04:37:54;98259.53;;;6.87;100.00
76448;BME280;65284;51.040;13.722;2023-10-19T04:40:22;98250.75;;;6.86;100.00
76448;BME280;65284;51.040;13.722;2023-10-19T04:42:54;98276.69;;;6.82;100.00
76448;BME280;65284;51.040;13.722;2023-10-19T04:45:21;98270.16;;;6.78;100.00
76448;BME280;65284;51.040;13.722;2023-10-19T04:47:51;98269.34;;;6.78;100.00
76448;BME280;65284;51.040;13.722;2023-10-19T04:50:19;98251.75;;;6.70;100.00
76448;BME280;65284;51.040;13.722;2023-10-19T04:52:46;98256.38;;;6.68;100.00
76448;BME280;65284;51.040;13.722;2023-10-19T04:55:12;98250.13;;;6.69;100.00
76448;BME280;65284;51.040;13.722;2023-10-19T04:57:39;98246.84;;;6.67;100.00
76448;BME280;65284;51.040;13.722;2023-10-19T05:00:06;98242.91;;;6.63;100.00
76448;BME280;65284;51.040;13.722;2023-10-19T05:02:34;98254.44;;;6.62;100.00
76448;BME280;65284;51.040;13.722;2023-10-19T05:05:00;98253.53;;;6.55;100.00
76448;BME280;65284;51.040;13.722;2023-10-19T05:07:27;98246.63;;;6.54;100.00
76448;BME280;65284;51.040;13.722;2023-10-19T05:09:53;98241.38;;;6.54;100.00
76448;BME280;65284;51.040;13.722;2023-10-19T05:12:20;98242.34;;;6.53;100.00
76448;BME280;65284;51.040;13.722;2023-10-19T05:14:47;98234.06;;;6.56;100.00
76448;BME280;65284;51.040;13.722;2023-10-19T05:17:14;98231.63;;;6.54;100.00
76448;BME280;65284;51.040;13.722;2023-10-19T05:19:41;98234.78;;;6.50;100.00
76448;BME280;65284;51.040;13.722;2023-10-19T05:22:09;98224.25;;;6.50;100.00
76448;BME280;65284;51.040;13.722;2023-10-19T05:24:36;98223.63;;;6.48;100.00
76448;BME280;65284;51.040;13.722;2023-10-19T05:27:02;98216.31;;;6.50;100.00
76448;BME280;65284;51.040;13.722;2023-10-19T05:29:31;98233.16;;;6.49;100.00
76448;BME280;65284;51.040;13.722;2023-10-19T05:31:59;98219.50;;;6.45;100.00
76448;BME280;65284;51.040;13.722;2023-10-19T05:34:27;98215.13;;;6.37;100.00
76448;BME280;65284;51.040;13.722;2023-10-19T05:36:56;98212.41;;;6.46;100.00
76448;BME280;65284;51.040;13.722;2023-10-19T05:39:25;98216.97;;;6.52;100.00
76448;BME280;65284;51.040;13.722;2023-10-19T05:41:55;98228.78;;;6.56;100.00
76448;BME280;65284;51.040;13.722;2023-10-19T05:44:21;98232.16;;;6.50;100.00
76448;BME280;65284;51.040;13.722;2023-10-19T05:46:51;98222.06;;;6.53;100.00
76448;BME280;65284;51.040;13.722;2023-10-19T05:49:17;98223.53;;;6.56;100.00
76448;BME280;65284;51.040;13.722;2023-10-19T05:51:44;98212.97;;;6.56;100.00
76448;BME280;65284;51.040;13.722;2023-10-19T05:54:11;98217.25;;;6.57;100.00
76448;BME280;65284;51.040;13.722;2023-10-19T05:56:38;98212.16;;;6.55;100.00
76448;BME280;65284;51.040;13.722;2023-10-19T05:59:05;98212.97;;;6.56;100.00
76448;BME280;65284;51.040;13.722;2023-10-19T06:01:32;98207.25;;;6.52;100.00
76448;BME280;65284;51.040;13.722;2023-10-19T06:03:59;98208.06;;;6.53;100.00
76448;BME280;65284;51.040;13.722;2023-10-19T06:06:26;98204.44;;;6.54;100.00
76448;BME280;65284;51.040;13.722;2023-10-19T06:08:53;98207.06;;;6.54;100.00
76448;BME280;65284;51.040;13.722;2023-10-19T06:11:20;98218.97;;;6.50;100.00
76448;BME280;65284;51.040;13.722;2023-10-19T06:13:47;98231.16;;;6.51;100.00
76448;BME280;65284;51.040;13.722;2023-10-19T06:16:14;98234.44;;;6.53;100.00
76448;BME280;65284;51.040;13.722;2023-10-19T06:18:41;98235.38;;;6.60;100.00
76448;BME280;65284;51.040;13.722;2023-10-19T06:21:09;98227.25;;;6.61;100.00
76448;BME280;65284;51.040;13.722;2023-10-19T06:23:36;98244.25;;;6.59;100.00
76448;BME280;65284;51.040;13.722;2023-10-19T06:26:09;98239.69;;;6.53;100.00
76448;BME280;65284;51.040;13.722;2023-10-19T06:28:38;98236.09;;;6.54;100.00
76448;BME280;65284;51.040;13.722;2023-10-19T06:31:06;98239.81;;;6.59;100.00
76448;BME280;65284;51.040;13.722;2023-10-19T06:33:33;98237.66;;;6.63;100.00
76448;BME280;65284;51.040;13.722;2023-10-19T06:35:59;98244.75;;;6.63;100.00
76448;BME280;65284;51.040;13.722;2023-10-19T06:38:29;98240.81;;;6.58;100.00
76448;BME280;65284;51.040;13.722;2023-10-19T06:40:59;98229.19;;;6.68;100.00
76448;BME280;65284;51.040;13.722;2023-10-19T06:43:25;98228.38;;;6.67;100.00
76448;BME280;65284;51.040;13.722;2023-10-19T06:45:58;98237.09;;;6.68;100.00
76448;BME280;65284;51.040;13.722;2023-10-19T06:48:26;98233.00;;;6.65;100.00
76448;BME280;65284;51.040;13.722;2023-10-19T06:50:53;98234.09;;;6.71;100.00
76448;BME280;65284;51.040;13.722;2023-10-19T06:53:19;98226.63;;;6.74;100.00
76448;BME280;65284;51.040;13.722;2023-10-19T06:55:46;98227.84;;;6.72;100.00
76448;BME280;65284;51.040;13.722;2023-10-19T06:58:12;98231.28;;;6.72;100.00
76448;BME280;65284;51.040;13.722;2023-10-19T07:00:41;98223.38;;;6.72;100.00
76448;BME280;65284;51.040;13.722;2023-10-19T07:03:13;98222.09;;;6.68;100.00
76448;BME280;65284;51.040;13.722;2023-10-19T07:05:40;98227.28;;;6.76;100.00
76448;BME280;65284;51.040;13.722;2023-10-19T07:08:06;98224.66;;;6.76;100.00
76448;BME280;65284;51.040;13.722;2023-10-19T07:10:33;98221.34;;;6.74;100.00
76448;BME280;65284;51.040;13.722;2023-10-19T07:13:01;98212.47;;;6.75;100.00
76448;BME280;65284;51.040;13.722;2023-10-19T07:15:28;98206.19;;;6.76;100.00
76448;BME280;65284;51.040;13.722;2023-10-19T07:17:56;98210.00;;;6.74;100.00
76448;BME280;65284;51.040;13.722;2023-10-19T07:20:23;98210.47;;;6.77;100.00
76448;BME280;65284;51.040;13.722;2023-10-19T07:22:56;98205.72;;;6.73;100.00
76448;BME280;65284;51.040;13.722;2023-10-19T07:25:23;98209.19;;;6.73;100.00
76448;BME280;65284;51.040;13.722;2023-10-19T07:27:52;98214.53;;;6.80;100.00
76448;BME280;65284;51.040;13.722;2023-10-19T07:30:20;98210.00;;;6.74;100.00
76448;BME280;65284;51.040;13.722;2023-10-19T07:32:49;98217.75;;;6.75;100.00
76448;BME280;65284;51.040;13.722;2023-10-19T07:35:21;98213.72;;;6.79;100.00
76448;BME280;65284;51.040;13.722;2023-10-19T07:37:49;98216.56;;;6.78;100.00
76448;BME280;65284;51.040;13.722;2023-10-19T07:40:16;98210.81;;;6.74;100.00
76448;BME280;65284;51.040;13.722;2023-10-19T07:42:44;98221.56;;;6.73;100.00
76448;BME280;65284;51.040;13.722;2023-10-19T07:45:11;98219.38;;;6.76;100.00
76448;BME280;65284;51.040;13.722;2023-10-19T07:47:41;98230.72;;;6.77;100.00
76448;BME280;65284;51.040;13.722;2023-10-19T07:50:08;98236.38;;;6.74;100.00
76448;BME280;65284;51.040;13.722;2023-10-19T07:52:39;98230.72;;;6.77;100.00
76448;BME280;65284;51.040;13.722;2023-10-19T07:55:05;98222.66;;;6.78;100.00
76448;BME280;65284;51.040;13.722;2023-10-19T07:57:33;98225.56;;;6.83;100.00
76448;BME280;65284;51.040;13.722;2023-10-19T08:00:00;98216.66;;;6.84;100.00
76448;BME280;65284;51.040;13.722;2023-10-19T08:02:30;98221.47;;;6.81;100.00
76448;BME280;65284;51.040;13.722;2023-10-19T08:04:57;98220.91;;;6.86;100.00
76448;BME280;65284;51.040;13.722;2023-10-19T08:07:24;98210.09;;;6.80;100.00
76448;BME280;65284;51.040;13.722;2023-10-19T08:09:52;98210.56;;;6.84;100.00
76448;BME280;65284;51.040;13.722;2023-10-19T08:12:19;98213.19;;;6.84;100.00
76448;BME280;65284;51.040;13.722;2023-10-19T08:14:45;98204.09;;;6.87;100.00
76448;BME280;65284;51.040;13.722;2023-10-19T08:17:12;98197.53;;;6.82;100.00
76448;BME280;65284;51.040;13.722;2023-10-19T08:19:39;98193.91;;;6.83;100.00
76448;BME280;65284;51.040;13.722;2023-10-19T08:22:06;98195.91;;;6.81;100.00
76448;BME280;65284;51.040;13.722;2023-10-19T08:24:33;98184.19;;;6.84;100.00
76448;BME280;65284;51.040;13.722;2023-10-19T08:27:01;98186.63;;;6.86;100.00
76448;BME280;65284;51.040;13.722;2023-10-19T08:29:28;98181.34;;;6.86;100.00
76448;BME280;65284;51.040;13.722;2023-10-19T08:31:56;98184.25;;;6.91;100.00
76448;BME280;65284;51.040;13.722;2023-10-19T08:34:23;98167.25;;;6.93;100.00
76448;BME280;65284;51.040;13.722;2023-10-19T08:36:51;98166.06;;;6.96;100.00
76448;BME280;65284;51.040;13.722;2023-10-19T08:39:18;98162.41;;;6.97;100.00
76448;BME280;65284;51.040;13.722;2023-10-19T08:41:44;98163.78;;;6.93;100.00
76448;BME280;65284;51.040;13.722;2023-10-19T08:44:11;98148.41;;;6.96;100.00
76448;BME280;65284;51.040;13.722;2023-10-19T08:46:40;98140.56;;;7.03;100.00
76448;BME280;65284;51.040;13.722;2023-10-19T08:49:18;98156.31;;;7.11;100.00
76448;BME280;65284;51.040;13.722;2023-10-19T08:51:46;98155.28;;;7.12;100.00
76448;BME280;65284;51.040;13.722;2023-10-19T08:54:13;98150.75;;;7.06;100.00
76448;BME280;65284;51.040;13.722;2023-10-19T08:56:41;98145.84;;;7.03;100.00
76448;BME280;65284;51.040;13.722;2023-10-19T08:59:08;98157.69;;;7.07;100.00
76448;BME280;65284;51.040;13.722;2023-10-19T09:01:38;98151.47;;;7.15;100.00
76448;BME280;65284;51.040;13.722;2023-10-19T09:04:05;98152.03;;;7.10;100.00
76448;BME280;65284;51.040;13.722;2023-10-19T09:06:35;98143.75;;;7.13;100.00
76448;BME280;65284;51.040;13.722;2023-10-19T09:09:11;98141.19;;;7.20;100.00
76448;BME280;65284;51.040;13.722;2023-10-19T09:11:46;98130.75;;;7.33;100.00
76448;BME280;65284;51.040;13.722;2023-10-19T09:14:12;98126.38;;;7.40;100.00
76448;BME280;65284;51.040;13.722;2023-10-19T09:16:55;98118.34;;;7.48;100.00
76448;BME280;65284;51.040;13.722;2023-10-19T09:19:37;98124.06;;;7.52;100.00
76448;BME280;65284;51.040;13.722;2023-10-19T09:22:05;98128.59;;;7.58;100.00
76448;BME280;65284;51.040;13.722;2023-10-19T09:24:47;98126.94;;;7.57;100.00
76448;BME280;65284;51.040;13.722;2023-10-19T09:27:20;98129.03;;;7.62;100.00
76448;BME280;65284;51.040;13.722;2023-10-19T09:29:50;98119.41;;;7.75;100.00
76448;BME280;65284;51.040;13.722;2023-10-19T09:32:19;98120.28;;;7.83;100.00
76448;BME280;65284;51.040;13.722;2023-10-19T09:34:47;98120.16;;;7.91;100.00
76448;BME280;65284;51.040;13.722;2023-10-19T09:37:16;98125.44;;;7.91;100.00
76448;BME280;65284;51.040;13.722;2023-10-19T09:39:42;98116.75;;;7.97;100.00
76448;BME280;65284;51.040;13.722;2023-10-19T09:42:10;98108.59;;;7.98;100.00
76448;BME280;65284;51.040;13.722;2023-10-19T09:44:44;98125.53;;;8.04;100.00
76448;BME280;65284;51.040;13.722;2023-10-19T09:47:15;98122.50;;;8.07;100.00
76448;BME280;65284;51.040;13.722;2023-10-19T09:49:44;98114.81;;;8.12;100.00
76448;BME280;65284;51.040;13.722;2023-10-19T09:52:12;98112.06;;;8.20;100.00
76448;BME280;65284;51.040;13.722;2023-10-19T09:54:57;98108.16;;;8.16;100.00
76448;BME280;65284;51.040;13.722;2023-10-19T09:57:35;98111.47;;;8.25;100.00
76448;BME280;65284;51.040;13.722;2023-10-19T10:00:04;98109.44;;;8.27;100.00
76448;BME280;65284;51.040;13.722;2023-10-19T10:02:43;98111.66;;;8.24;100.00
76448;BME280;65284;51.040;13.722;2023-10-19T10:10:50;98110.13;;;8.08;100.00
76448;BME280;65284;51.040;13.722;2023-10-19T10:15:59;98091.66;;;8.14;100.00
76448;BME280;65284;51.040;13.722;2023-10-19T10:18:31;98092.53;;;8.21;100.00
76448;BME280;65284;51.040;13.722;2023-10-19T10:23:32;98086.84;;;8.25;100.00
76448;BME280;65284;51.040;13.722;2023-10-19T10:25:59;98079.53;;;8.27;100.00
76448;BME280;65284;51.040;13.722;2023-10-19T10:28:25;98071.44;;;8.28;100.00
76448;BME280;65284;51.040;13.722;2023-10-19T10:31:14;98056.38;;;8.29;100.00
76448;BME280;65284;51.040;13.722;2023-10-19T10:33:49;98060.63;;;8.30;100.00
76448;BME280;65284;51.040;13.722;2023-10-19T10:36:19;98060.84;;;8.28;100.00
76448;BME280;65284;51.040;13.722;2023-10-19T10:38:48;98054.31;;;8.31;100.00
76448;BME280;65284;51.040;13.722;2023-10-19T10:41:24;98055.19;;;8.38;100.00
76448;BME280;65284;51.040;13.722;2023-10-19T10:43:55;98058.03;;;8.36;100.00
76448;BME280;65284;51.040;13.722;2023-10-19T10:46:24;98040.59;;;8.42;100.00
76448;BME280;65284;51.040;13.722;2023-10-19T10:48:51;98036.31;;;8.41;100.00
76448;BME280;65284;51.040;13.722;2023-10-19T10:51:19;98043.06;;;8.43;100.00
76448;BME280;65284;51.040;13.722;2023-10-19T10:53:47;98039.88;;;8.61;100.00
76448;BME280;65284;51.040;13.722;2023-10-19T10:56:14;98030.94;;;8.62;100.00
76448;BME280;65284;51.040;13.722;2023-10-19T10:58:41;98027.66;;;8.60;100.00
76448;BME280;65284;51.040;13.722;2023-10-19T11:01:07;98024.44;;;8.72;100.00
76448;BME280;65284;51.040;13.722;2023-10-19T11:03:34;98027.34;;;8.83;100.00
76448;BME280;65284;51.040;13.722;2023-10-19T11:06:05;98028.59;;;8.94;100.00
76448;BME280;65284;51.040;13.722;2023-10-19T11:08:35;98028.59;;;8.94;100.00
76448;BME280;65284;51.040;13.722;2023-10-19T11:11:04;98038.16;;;8.95;100.00
76448;BME280;65284;51.040;13.722;2023-10-19T11:13:31;98022.91;;;8.97;100.00
76448;BME280;65284;51.040;13.722;2023-10-19T11:15:59;98019.63;;;8.95;100.00
76448;BME280;65284;51.040;13.722;2023-10-19T11:18:41;98014.78;;;9.05;100.00
76448;BME280;65284;51.040;13.722;2023-10-19T11:21:10;98023.72;;;9.04;100.00
76448;BME280;65284;51.040;13.722;2023-10-19T11:23:47;98028.63;;;9.07;100.00
76448;BME280;65284;51.040;13.722;2023-10-19T11:26:20;98020.09;;;9.05;100.00
76448;BME280;65284;51.040;13.722;2023-10-19T11:29:00;98012.56;;;9.09;100.00
76448;BME280;65284;51.040;13.722;2023-10-19T11:31:36;98017.63;;;9.10;100.00
76448;BME280;65284;51.040;13.722;2023-10-19T11:34:06;98019.47;;;9.10;100.00
76448;BME280;65284;51.040;13.722;2023-10-19T11:36:35;98019.69;;;9.08;100.00
76448;BME280;65284;51.040;13.722;2023-10-19T11:39:01;98020.09;;;9.05;100.00
76448;BME280;65284;51.040;13.722;2023-10-19T11:41:30;98014.41;;;9.08;100.00
76448;BME280;65284;51.040;13.722;2023-10-19T11:43:57;98014.78;;;9.05;100.00
76448;BME280;65284;51.040;13.722;2023-10-19T11:46:23;98016.00;;;9.09;100.00
76448;BME280;65284;51.040;13.722;2023-10-19T11:48:52;98009.91;;;9.16;100.00
76448;BME280;65284;51.040;13.722;2023-10-19T11:51:18;98005.25;;;9.18;100.00
76448;BME280;65284;51.040;13.722;2023-10-19T11:53:45;98005.06;;;9.26;100.00
76448;BME280;65284;51.040;13.722;2023-10-19T11:56:13;98005.06;;;9.26;100.00
76448;BME280;65284;51.040;13.722;2023-10-19T11:58:40;98015.66;;;9.26;100.00
76448;BME280;65284;51.040;13.722;2023-10-19T12:01:09;98003.81;;;9.22;100.00
76448;BME280;65284;51.040;13.722;2023-10-19T12:03:39;98003.00;;;9.15;100.00
76448;BME280;65284;51.040;13.722;2023-10-19T12:06:08;98002.38;;;9.13;100.00
76448;BME280;65284;51.040;13.722;2023-10-19T12:08:35;98011.94;;;9.07;100.00
76448;BME280;65284;51.040;13.722;2023-10-19T12:11:05;98007.84;;;9.04;100.00
76448;BME280;65284;51.040;13.722;2023-10-19T12:13:42;98003.97;;;9.00;100.00
76448;BME280;65284;51.040;13.722;2023-10-19T12:16:13;98005.81;;;9.00;100.00
76448;BME280;65284;51.040;13.722;2023-10-19T12:18:42;98009.69;;;9.04;100.00
76448;BME280;65284;51.040;13.722;2023-10-19T12:21:09;98018.84;;;9.01;100.00
76448;BME280;65284;51.040;13.722;2023-10-19T12:23:40;98001.97;;;9.02;100.00
76448;BME280;65284;51.040;13.722;2023-10-19T12:26:07;98001.56;;;9.05;100.00
76448;BME280;65284;51.040;13.722;2023-10-19T12:28:41;97999.72;;;9.13;100.00
76448;BME280;65284;51.040;13.722;2023-10-19T12:31:08;98001.56;;;9.19;100.00
76448;BME280;65284;51.040;13.722;2023-10-19T12:33:36;97998.28;;;9.17;100.00
76448;BME280;65284;51.040;13.722;2023-10-19T12:36:02;97983.03;;;9.19;100.00
76448;BME280;65284;51.040;13.722;2023-10-19T12:38:48;97986.31;;;9.21;100.00
76448;BME280;65284;51.040;13.722;2023-10-19T12:41:16;97993.22;;;9.22;100.00
76448;BME280;65284;51.040;13.722;2023-10-19T12:43:43;97997.69;;;9.21;100.00
76448;BME280;65284;51.040;13.722;2023-10-19T12:46:10;97994.44;;;9.19;100.00
76448;BME280;65284;51.040;13.722;2023-10-19T12:48:38;97987.69;;;9.17;100.00
76448;BME280;65284;51.040;13.722;2023-10-19T12:51:04;97993.63;;;9.19;100.00
76448;BME280;65284;51.040;13.722;2023-10-19T12:53:35;97988.31;;;9.19;100.00
76448;BME280;65284;51.040;13.722;2023-10-19T12:56:03;97987.91;;;9.22;100.00
76448;BME280;65284;51.040;13.722;2023-10-19T12:58:30;97983.47;;;9.29;100.00
76448;BME280;65284;51.040;13.722;2023-10-19T13:00:58;97977.13;;;9.23;100.00
76448;BME280;65284;51.040;13.722;2023-10-19T13:03:24;97981.22;;;9.26;100.00
76448;BME280;65284;51.040;13.722;2023-10-19T13:05:58;97979.78;;;9.30;100.00
76448;BME280;65284;51.040;13.722;2023-10-19T13:08:24;97967.97;;;9.39;100.00
76448;BME280;65284;51.040;13.722;2023-10-19T13:10:53;97965.94;;;9.41;100.00
76448;BME280;65284;51.040;13.722;2023-10-19T13:13:30;97965.53;;;9.51;100.00
76448;BME280;65284;51.040;13.722;2023-10-19T13:15:56;97954.09;;;9.64;100.00
76448;BME280;65284;51.040;13.722;2023-10-19T13:18:23;97950.41;;;9.78;100.00
76448;BME280;65284;51.040;13.722;2023-10-19T13:20:55;97947.09;;;9.96;100.00